sensor_id;sensor_type;location;lat;lon;timestamp;pressure;altitude;pressure_sealevel;temperature;humidity
26192;BME280;13935;55.672;37.764;2023-02-17T00:08:40;100846.66;;;-4.22;100.00
26192;BME280;13935;55.672;37.764;2023-02-17T00:09:45;100861.22;;;-4.32;100.00
26192;BME280;13935;55.672;37.764;2023-02-17T00:10:57;100854.72;;;-4.36;100.00
26192;BME280;13935;55.672;37.764;2023-02-17T00:12:01;100856.09;;;-4.29;100.00
26192;BME280;13935;55.672;37.764;2023-02-17T00:13:07;100852.88;;;-4.21;100.00
26192;BME280;13935;55.672;37.764;2023-02-17T00:14:12;100849.28;;;-4.46;100.00
26192;BME280;13935;55.672;37.764;2023-02-17T00:15:16;100856.91;;;-4.33;100.00
26192;BME280;13935;55.672;37.764;2023-02-17T00:16:24;100849.59;;;-4.33;100.00
26192;BME280;13935;55.672;37.764;2023-02-17T00:17:38;100856.41;;;-4.16;100.00
26192;BME280;13935;55.672;37.764;2023-02-17T00:18:55;100849.13;;;-4.10;99.26
26192;BME280;13935;55.672;37.764;2023-02-17T00:19:58;100853.69;;;-4.16;99.67
26192;BME280;13935;55.672;37.764;2023-02-17T00:21:16;100849.13;;;-4.00;99.60
26192;BME280;13935;55.672;37.764;2023-02-17T00:22:20;100857.47;;;-4.26;99.51
26192;BME280;13935;55.672;37.764;2023-02-17T00:23:24;100851.00;;;-4.11;98.92
26192;BME280;13935;55.672;37.764;2023-02-17T00:24:30;100858.03;;;-4.05;99.60
26192;BME280;13935;55.672;37.764;2023-02-17T00:25:38;100853.19;;;-4.08;99.39
26192;BME280;13935;55.672;37.764;2023-02-17T00:26:46;100856.97;;;-4.09;98.36
26192;BME280;13935;55.672;37.764;2023-02-17T00:27:49;100845.38;;;-3.99;98.75
26192;BME280;13935;55.672;37.764;2023-02-17T00:28:59;100853.19;;;-3.98;99.03
26192;BME280;13935;55.672;37.764;2023-02-17T00:30:04;100851.56;;;-3.99;98.66
26192;BME280;13935;55.672;37.764;2023-02-17T00:31:17;100853.19;;;-3.93;98.36
26192;BME280;13935;55.672;37.764;2023-02-17T00:32:49;100853.47;;;-3.84;97.84
26192;BME280;13935;55.672;37.764;2023-02-17T00:34:39;100848.06;;;-3.94;96.63
26192;BME280;13935;55.672;37.764;2023-02-17T00:36:48;100850.78;;;-3.74;97.39
26192;BME280;13935;55.672;37.764;2023-02-17T00:38:05;100847.53;;;-3.81;97.36
26192;BME280;13935;55.672;37.764;2023-02-17T00:39:13;100848.91;;;-3.84;96.72
26192;BME280;13935;55.672;37.764;2023-02-17T00:40:19;100853.47;;;-3.99;97.65
26192;BME280;13935;55.672;37.764;2023-02-17T00:41:27;100849.41;;;-3.87;98.42
26192;BME280;13935;55.672;37.764;2023-02-17T00:42:31;100854.81;;;-3.87;97.59
26192;BME280;13935;55.672;37.764;2023-02-17T00:43:38;100844.56;;;-3.80;97.59
26192;BME280;13935;55.672;37.764;2023-02-17T00:44:47;100852.63;;;-4.05;97.18
26192;BME280;13935;55.672;37.764;2023-02-17T00:45:57;100843.44;;;-4.14;98.79
26192;BME280;13935;55.672;37.764;2023-02-17T00:47:13;100844.00;;;-4.07;99.09
26192;BME280;13935;55.672;37.764;2023-02-17T00:48:17;100841.31;;;-3.97;98.69
26192;BME280;13935;55.672;37.764;2023-02-17T00:49:24;100834.31;;;-3.78;98.39
26192;BME280;13935;55.672;37.764;2023-02-17T00:50:31;100839.72;;;-3.83;97.86
26192;BME280;13935;55.672;37.764;2023-02-17T00:51:40;100840.25;;;-3.86;97.42
26192;BME280;13935;55.672;37.764;2023-02-17T00:52:43;100847.28;;;-3.85;97.26
26192;BME280;13935;55.672;37.764;2023-02-17T00:53:49;100834.84;;;-3.81;98.11
26192;BME280;13935;55.672;37.764;2023-02-17T00:54:53;100835.38;;;-3.74;97.65
26192;BME280;13935;55.672;37.764;2023-02-17T00:56:00;100837.56;;;-3.71;97.64
26192;BME280;13935;55.672;37.764;2023-02-17T00:57:04;100838.63;;;-3.77;97.68
26192;BME280;13935;55.672;37.764;2023-02-17T00:58:10;100842.16;;;-3.66;97.39
26192;BME280;13935;55.672;37.764;2023-02-17T00:59:14;100831.06;;;-3.80;98.32
26192;BME280;13935;55.672;37.764;2023-02-17T01:00:19;100834.31;;;-3.63;99.49
26192;BME280;13935;55.672;37.764;2023-02-17T02:11:59;100841.84;;;-4.05;100.00
26192;BME280;13935;55.672;37.764;2023-02-17T02:13:07;100841.28;;;-4.12;100.00
26192;BME280;13935;55.672;37.764;2023-02-17T02:14:32;100845.59;;;-4.06;100.00
26192;BME280;13935;55.672;37.764;2023-02-17T02:15:51;100845.31;;;-4.29;100.00
26192;BME280;13935;55.672;37.764;2023-02-17T02:18:23;100836.94;;;-4.18;100.00
26192;BME280;13935;55.672;37.764;2023-02-17T02:34:56;100842.88;;;-4.25;100.00
26192;BME280;13935;55.672;37.764;2023-02-17T02:36:27;100836.94;;;-4.32;100.00
26192;BME280;13935;55.672;37.764;2023-02-17T02:37:46;100830.47;;;-4.22;100.00
26192;BME280;13935;55.672;37.764;2023-02-17T02:39:15;100846.69;;;-4.17;100.00
26192;BME280;13935;55.672;37.764;2023-02-17T02:40:23;100833.72;;;-4.20;100.00
26192;BME280;13935;55.672;37.764;2023-02-17T02:41:42;100838.63;;;-4.07;100.00
26192;BME280;13935;55.672;37.764;2023-02-17T02:42:52;100841.78;;;-4.25;100.00
26192;BME280;13935;55.672;37.764;2023-02-17T02:44:08;100836.38;;;-4.29;100.00
26192;BME280;13935;55.672;37.764;2023-02-17T02:45:17;100835.31;;;-4.33;100.00
26192;BME280;13935;55.672;37.764;2023-02-17T02:46:24;100834.50;;;-4.29;100.00
26192;BME280;13935;55.672;37.764;2023-02-17T02:47:44;100845.03;;;-4.23;100.00
26192;BME280;13935;55.672;37.764;2023-02-17T02:48:52;100835.28;;;-4.43;100.00
26192;BME280;13935;55.672;37.764;2023-02-17T02:49:55;100832.84;;;-4.40;100.00
26192;BME280;13935;55.672;37.764;2023-02-17T02:54:23;100835.34;;;-4.09;100.00
26192;BME280;13935;55.672;37.764;2023-02-17T02:57:21;100841.28;;;-4.22;100.00
26192;BME280;13935;55.672;37.764;2023-02-17T03:07:51;100835.38;;;-3.89;100.00
26192;BME280;13935;55.672;37.764;2023-02-17T03:09:08;100841.56;;;-4.08;100.00
26192;BME280;13935;55.672;37.764;2023-02-17T03:10:17;100831.31;;;-4.11;100.00
26192;BME280;13935;55.672;37.764;2023-02-17T03:11:24;100837.22;;;-4.14;100.00
26192;BME280;13935;55.672;37.764;2023-02-17T03:12:37;100838.56;;;-4.12;100.00
26192;BME280;13935;55.672;37.764;2023-02-17T03:13:44;100837.00;;;-4.03;100.00
26192;BME280;13935;55.672;37.764;2023-02-17T03:14:51;100845.91;;;-3.87;100.00
26192;BME280;13935;55.672;37.764;2023-02-17T03:15:58;100836.47;;;-3.90;100.00
26192;BME280;13935;55.672;37.764;2023-02-17T03:17:03;100847.28;;;-3.95;100.00
26192;BME280;13935;55.672;37.764;2023-02-17T03:18:08;100841.28;;;-4.12;100.00
26192;BME280;13935;55.672;37.764;2023-02-17T03:19:19;100831.03;;;-4.15;100.00
26192;BME280;13935;55.672;37.764;2023-02-17T03:20:32;100839.63;;;-4.27;100.00
26192;BME280;13935;55.672;37.764;2023-02-17T03:21:51;100843.91;;;-4.36;100.00
26192;BME280;13935;55.672;37.764;2023-02-17T03:22:59;100848.84;;;-4.19;100.00
26192;BME280;13935;55.672;37.764;2023-02-17T03:24:05;100832.63;;;-4.24;100.00
26192;BME280;13935;55.672;37.764;2023-02-17T03:25:13;100838.56;;;-4.26;100.00
26192;BME280;13935;55.672;37.764;2023-02-17T03:26:24;100839.63;;;-4.32;100.00
26192;BME280;13935;55.672;37.764;2023-02-17T03:27:30;100840.72;;;-4.28;100.00
26192;BME280;13935;55.672;37.764;2023-02-17T03:28:39;100830.47;;;-4.26;100.00
26192;BME280;13935;55.672;37.764;2023-02-17T03:29:43;100832.63;;;-4.24;100.00
26192;BME280;13935;55.672;37.764;2023-02-17T03:30:50;100832.91;;;-4.20;100.00
26192;BME280;13935;55.672;37.764;2023-02-17T03:31:55;100838.06;;;-4.04;100.00
26192;BME280;13935;55.672;37.764;2023-02-17T03:33:01;100835.03;;;-4.27;100.00
26192;BME280;13935;55.672;37.764;2023-02-17T03:34:11;100837.44;;;-4.30;100.00
26192;BME280;13935;55.672;37.764;2023-02-17T03:35:17;100844.25;;;-4.28;100.00
26192;BME280;13935;55.672;37.764;2023-02-17T03:36:26;100834.25;;;-4.23;100.00
26192;BME280;13935;55.672;37.764;2023-02-17T03:37:36;100837.50;;;-4.21;100.00
26192;BME280;13935;55.672;37.764;2023-02-17T03:42:15;100845.09;;;-4.13;100.00
26192;BME280;13935;55.672;37.764;2023-02-17T03:43:24;100845.59;;;-4.11;100.00
26192;BME280;13935;55.672;37.764;2023-02-17T03:44:30;100842.91;;;-4.11;100.00
26192;BME280;13935;55.672;37.764;2023-02-17T03:45:36;100846.44;;;-4.10;100.00
26192;BME280;13935;55.672;37.764;2023-02-17T03:46:41;100849.66;;;-4.13;100.00
26192;BME280;13935;55.672;37.764;2023-02-17T03:47:47;100843.47;;;-4.04;100.00
26192;BME280;13935;55.672;37.764;2023-02-17T03:48:54;100851.28;;;-4.02;100.00
26192;BME280;13935;55.672;37.764;2023-02-17T03:50:03;100851.56;;;-3.99;100.00
26192;BME280;13935;55.672;37.764;2023-02-17T03:51:16;100842.38;;;-4.08;100.00
26192;BME280;13935;55.672;37.764;2023-02-17T03:52:30;100848.06;;;-3.94;100.00
26192;BME280;13935;55.672;37.764;2023-02-17T03:53:40;100839.69;;;-3.98;100.00
26192;BME280;13935;55.672;37.764;2023-02-17T03:54:44;100846.72;;;-3.92;100.00
26192;BME280;13935;55.672;37.764;2023-02-17T03:55:48;100839.16;;;-3.90;100.00
26192;BME280;13935;55.672;37.764;2023-02-17T03:57:00;100840.53;;;-3.92;100.00
26192;BME280;13935;55.672;37.764;2023-02-17T03:58:09;100831.34;;;-3.91;100.00
26192;BME280;13935;55.672;37.764;2023-02-17T03:59:16;100838.63;;;-4.02;100.00
26192;BME280;13935;55.672;37.764;2023-02-17T04:00:25;100842.91;;;-4.11;100.00
26192;BME280;13935;55.672;37.764;2023-02-17T04:01:28;100836.72;;;-4.06;100.00
26192;BME280;13935;55.672;37.764;2023-02-17T04:02:35;100846.16;;;-4.14;100.00
26192;BME280;13935;55.672;37.764;2023-02-17T04:03:42;100837.25;;;-3.94;100.00
26192;BME280;13935;55.672;37.764;2023-02-17T04:04:46;100844.84;;;-3.76;100.00
26192;BME280;13935;55.672;37.764;2023-02-17T04:05:53;100853.22;;;-3.88;100.00
26192;BME280;13935;55.672;37.764;2023-02-17T04:06:57;100842.41;;;-3.88;100.00
26192;BME280;13935;55.672;37.764;2023-02-17T04:08:02;100841.59;;;-3.88;100.00
26192;BME280;13935;55.672;37.764;2023-02-17T04:09:09;100843.78;;;-3.85;100.00
26192;BME280;13935;55.672;37.764;2023-02-17T04:10:14;100852.66;;;-3.85;100.00
26192;BME280;13935;55.672;37.764;2023-02-17T04:11:18;100844.56;;;-3.90;100.00
26192;BME280;13935;55.672;37.764;2023-02-17T04:12:23;100843.75;;;-4.00;100.00
26192;BME280;13935;55.672;37.764;2023-02-17T04:13:37;100842.94;;;-3.86;100.00
26192;BME280;13935;55.672;37.764;2023-02-17T04:14:43;100848.31;;;-4.11;100.00
26192;BME280;13935;55.672;37.764;2023-02-17T04:15:48;100843.69;;;-4.15;100.00
26192;BME280;13935;55.672;37.764;2023-02-17T04:16:59;100848.53;;;-4.37;100.00
26192;BME280;13935;55.672;37.764;2023-02-17T04:18:05;100851.00;;;-4.21;100.00
26192;BME280;13935;55.672;37.764;2023-02-17T04:19:36;100847.78;;;-3.98;100.00
26192;BME280;13935;55.672;37.764;2023-02-17T04:20:52;100841.56;;;-4.08;100.00
26192;BME280;13935;55.672;37.764;2023-02-17T04:22:27;100837.81;;;-3.97;100.00
26192;BME280;13935;55.672;37.764;2023-02-17T04:24:19;100842.94;;;-3.96;100.00
26192;BME280;13935;55.672;37.764;2023-02-17T04:56:31;100839.13;;;-4.00;100.00
26192;BME280;13935;55.672;37.764;2023-02-17T04:57:54;100833.22;;;-3.87;100.00
26192;BME280;13935;55.672;37.764;2023-02-17T04:59:32;100837.53;;;-3.86;100.00
26192;BME280;13935;55.672;37.764;2023-02-17T05:00:57;100839.69;;;-3.93;100.00
26192;BME280;13935;55.672;37.764;2023-02-17T05:02:04;100845.09;;;-3.93;100.00
26192;BME280;13935;55.672;37.764;2023-02-17T05:03:17;100851.59;;;-3.89;100.00
26192;BME280;13935;55.672;37.764;2023-02-17T05:05:06;100846.44;;;-4.05;100.00
26192;BME280;13935;55.672;37.764;2023-02-17T05:06:12;100845.59;;;-4.16;100.00
26192;BME280;13935;55.672;37.764;2023-02-17T05:07:47;100842.38;;;-4.08;100.00
26192;BME280;13935;55.672;37.764;2023-02-17T05:09:00;100845.09;;;-4.03;100.00
26192;BME280;13935;55.672;37.764;2023-02-17T05:10:33;100851.00;;;-4.16;100.00
26192;BME280;13935;55.672;37.764;2023-02-17T05:11:59;100863.13;;;-4.28;100.00
26192;BME280;13935;55.672;37.764;2023-02-17T05:13:10;100852.34;;;-4.28;100.00
26192;BME280;13935;55.672;37.764;2023-02-17T05:14:29;100851.50;;;-4.28;100.00
26192;BME280;13935;55.672;37.764;2023-02-17T05:15:36;100857.97;;;-4.34;100.00
26192;BME280;13935;55.672;37.764;2023-02-17T05:17:12;100854.72;;;-4.36;100.00
26192;BME280;13935;55.672;37.764;2023-02-17T05:21:58;100848.84;;;-4.14;100.00
26192;BME280;13935;55.672;37.764;2023-02-17T05:23:16;100848.91;;;-3.94;100.00
26192;BME280;13935;55.672;37.764;2023-02-17T05:24:23;100854.25;;;-4.04;100.00
26192;BME280;13935;55.672;37.764;2023-02-17T05:25:30;100853.75;;;-4.01;100.00
26192;BME280;13935;55.672;37.764;2023-02-17T05:26:37;100847.78;;;-4.08;100.00
26192;BME280;13935;55.672;37.764;2023-02-17T05:28:10;100850.78;;;-3.89;100.00
26192;BME280;13935;55.672;37.764;2023-02-17T15:14:34;100659.56;;;-3.14;100.00
26192;BME280;13935;55.672;37.764;2023-02-17T15:15:38;100650.91;;;-3.16;100.00
26192;BME280;13935;55.672;37.764;2023-02-17T15:16:48;100650.31;;;-3.08;100.00
26192;BME280;13935;55.672;37.764;2023-02-17T15:18:05;100644.97;;;-3.23;100.00
26192;BME280;13935;55.672;37.764;2023-02-17T15:19:15;100647.16;;;-3.20;100.00
26192;BME280;13935;55.672;37.764;2023-02-17T15:20:27;100649.31;;;-3.22;100.00
26192;BME280;13935;55.672;37.764;2023-02-17T16:02:48;100628.38;;;-3.60;100.00
26192;BME280;13935;55.672;37.764;2023-02-17T16:03:52;100626.47;;;-3.54;100.00
26192;BME280;13935;55.672;37.764;2023-02-17T16:05:02;100624.06;;;-3.61;100.00
26192;BME280;13935;55.672;37.764;2023-02-17T17:22:46;100553.72;;;-4.14;100.00
26192;BME280;13935;55.672;37.764;2023-02-17T17:24:00;100549.13;;;-4.09;100.00
26192;BME280;13935;55.672;37.764;2023-02-17T17:25:08;100549.66;;;-4.12;100.00
26192;BME280;13935;55.672;37.764;2023-02-17T17:26:35;100549.66;;;-4.12;100.00
26192;BME280;13935;55.672;37.764;2023-02-17T17:43:00;100538.91;;;-4.22;100.00
26192;BME280;13935;55.672;37.764;2023-02-17T17:44:10;100522.19;;;-4.28;100.00
26192;BME280;13935;55.672;37.764;2023-02-17T17:45:30;100523.78;;;-4.23;100.00
26192;BME280;13935;55.672;37.764;2023-02-17T17:46:36;100519.78;;;-4.30;100.00
26192;BME280;13935;55.672;37.764;2023-02-17T17:47:40;100524.88;;;-4.24;100.00
26192;BME280;13935;55.672;37.764;2023-02-17T17:49:06;100522.19;;;-4.19;100.00
26192;BME280;13935;55.672;37.764;2023-02-17T17:50:21;100517.84;;;-4.15;100.00
26192;BME280;13935;55.672;37.764;2023-02-17T17:51:35;100523.50;;;-4.16;100.00
26192;BME280;13935;55.672;37.764;2023-02-17T17:53:03;100522.16;;;-4.24;100.00
26192;BME280;13935;55.672;37.764;2023-02-17T17:54:11;100510.03;;;-4.26;100.00
26192;BME280;13935;55.672;37.764;2023-02-17T17:55:40;100510.81;;;-4.16;100.00
26192;BME280;13935;55.672;37.764;2023-02-17T17:56:46;100519.19;;;-4.17;100.00
26192;BME280;13935;55.672;37.764;2023-02-17T17:57:57;100512.16;;;-4.18;100.00
26192;BME280;13935;55.672;37.764;2023-02-17T17:59:16;100506.53;;;-4.26;100.00
26192;BME280;13935;55.672;37.764;2023-02-17T18:00:25;100510.03;;;-4.26;100.00
26192;BME280;13935;55.672;37.764;2023-02-17T18:01:39;100510.03;;;-4.26;100.00
26192;BME280;13935;55.672;37.764;2023-02-17T18:02:45;100508.66;;;-4.24;100.00
26192;BME280;13935;55.672;37.764;2023-02-17T18:03:54;100512.16;;;-4.18;100.00
26192;BME280;13935;55.672;37.764;2023-02-17T18:05:03;100499.22;;;-4.26;100.00
26192;BME280;13935;55.672;37.764;2023-02-17T18:50:57;100485.84;;;-4.71;100.00
26192;BME280;13935;55.672;37.764;2023-02-17T18:51:59;100477.25;;;-4.78;100.00
26192;BME280;13935;55.672;37.764;2023-02-17T18:53:02;100487.50;;;-4.80;100.00
26192;BME280;13935;55.672;37.764;2023-02-17T18:54:08;100483.44;;;-4.82;100.00
26192;BME280;13935;55.672;37.764;2023-02-17T18:55:17;100479.16;;;-4.88;100.00
26192;BME280;13935;55.672;37.764;2023-02-17T18:56:24;100476.69;;;-4.90;100.00
26192;BME280;13935;55.672;37.764;2023-02-17T18:57:28;100476.97;;;-4.86;100.00
26192;BME280;13935;55.672;37.764;2023-02-17T18:58:35;100475.63;;;-4.94;100.00
26192;BME280;13935;55.672;37.764;2023-02-17T18:59:45;100471.31;;;-4.99;100.00
26192;BME280;13935;55.672;37.764;2023-02-17T19:00:52;100467.00;;;-4.86;100.00
26192;BME280;13935;55.672;37.764;2023-02-17T19:02:05;100474.84;;;-4.94;100.00
26192;BME280;13935;55.672;37.764;2023-02-17T19:05:00;100471.06;;;-5.08;100.00
26192;BME280;13935;55.672;37.764;2023-02-17T19:06:09;100469.72;;;-5.05;100.00
26192;BME280;13935;55.672;37.764;2023-02-17T19:07:15;100462.44;;;-5.10;100.00
26192;BME280;13935;55.672;37.764;2023-02-17T19:08:21;100465.66;;;-5.03;100.00
26192;BME280;13935;55.672;37.764;2023-02-17T19:09:40;100462.44;;;-5.15;100.00
26192;BME280;13935;55.672;37.764;2023-02-17T19:10:46;100455.97;;;-5.09;100.00
26192;BME280;13935;55.672;37.764;2023-02-17T19:11:52;100458.13;;;-5.11;100.00
26192;BME280;13935;55.672;37.764;2023-02-17T19:12:57;100453.28;;;-5.19;100.00
26192;BME280;13935;55.672;37.764;2023-02-17T19:14:02;100453.00;;;-5.17;100.00
26192;BME280;13935;55.672;37.764;2023-02-17T19:15:09;100458.38;;;-5.07;100.00
26192;BME280;13935;55.672;37.764;2023-02-17T19:16:20;100452.44;;;-5.14;100.00
26192;BME280;13935;55.672;37.764;2023-02-17T19:17:25;100453.28;;;-5.19;100.00
26192;BME280;13935;55.672;37.764;2023-02-17T19:18:29;100445.44;;;-5.20;100.00
26192;BME280;13935;55.672;37.764;2023-02-17T19:19:37;100449.50;;;-5.13;100.00
26192;BME280;13935;55.672;37.764;2023-02-17T19:20:42;100451.38;;;-5.13;100.00
26192;BME280;13935;55.672;37.764;2023-02-17T19:21:50;100453.00;;;-5.17;100.00
26192;BME280;13935;55.672;37.764;2023-02-17T19:23:01;100454.09;;;-5.08;100.00
26192;BME280;13935;55.672;37.764;2023-02-17T19:24:07;100454.91;;;-5.13;100.00
26192;BME280;13935;55.672;37.764;2023-02-17T19:25:11;100450.59;;;-5.19;100.00
26192;BME280;13935;55.672;37.764;2023-02-17T19:26:17;100446.81;;;-5.18;100.00
26192;BME280;13935;55.672;37.764;2023-02-17T19:27:21;100456.78;;;-5.18;100.00
26192;BME280;13935;55.672;37.764;2023-02-17T19:28:25;100453.00;;;-5.17;100.00
26192;BME280;13935;55.672;37.764;2023-02-17T19:29:28;100450.56;;;-5.24;100.00
26192;BME280;13935;55.672;37.764;2023-02-17T19:30:33;100451.66;;;-5.25;100.00
26192;BME280;13935;55.672;37.764;2023-02-17T19:31:36;100454.34;;;-5.30;100.00
26192;BME280;13935;55.672;37.764;2023-02-17T19:32:44;100460.81;;;-5.36;100.00
26192;BME280;13935;55.672;37.764;2023-02-17T19:33:48;100459.22;;;-5.27;100.00
26192;BME280;13935;55.672;37.764;2023-02-17T19:34:51;100455.41;;;-5.36;100.00
26192;BME280;13935;55.672;37.764;2023-02-17T19:35:54;100451.13;;;-5.32;100.00
26192;BME280;13935;55.672;37.764;2023-02-17T19:36:59;100451.66;;;-5.25;100.00
26192;BME280;13935;55.672;37.764;2023-02-17T19:38:07;100453.00;;;-5.32;100.00
26192;BME280;13935;55.672;37.764;2023-02-17T19:39:19;100447.88;;;-5.39;100.00
26192;BME280;13935;55.672;37.764;2023-02-17T19:40:24;100445.75;;;-5.32;100.00
26192;BME280;13935;55.672;37.764;2023-02-17T19:41:28;100445.19;;;-5.29;100.00
26192;BME280;13935;55.672;37.764;2023-02-17T19:42:32;100447.88;;;-5.39;100.00
26192;BME280;13935;55.672;37.764;2023-02-17T19:43:35;100441.94;;;-5.41;100.00
26192;BME280;13935;55.672;37.764;2023-02-17T19:44:42;100447.88;;;-5.34;100.00
26192;BME280;13935;55.672;37.764;2023-02-17T19:45:46;100448.97;;;-5.40;100.00
26192;BME280;13935;55.672;37.764;2023-02-17T19:46:56;100448.97;;;-5.40;100.00
26192;BME280;13935;55.672;37.764;2023-02-17T19:48:03;100450.31;;;-5.37;100.00
26192;BME280;13935;55.672;37.764;2023-02-17T19:49:14;100445.19;;;-5.39;100.00
26192;BME280;13935;55.672;37.764;2023-02-17T19:50:23;100453.81;;;-5.37;100.00
26192;BME280;13935;55.672;37.764;2023-02-17T19:51:26;100455.97;;;-5.44;100.00
26192;BME280;13935;55.672;37.764;2023-02-17T19:52:35;100446.28;;;-5.45;100.00
26192;BME280;13935;55.672;37.764;2023-02-17T19:53:42;100446.00;;;-5.38;100.00
26192;BME280;13935;55.672;37.764;2023-02-17T19:54:47;100454.34;;;-5.45;100.00
26192;BME280;13935;55.672;37.764;2023-02-17T19:55:52;100450.59;;;-5.44;100.00
26192;BME280;13935;55.672;37.764;2023-02-17T19:56:55;100444.09;;;-5.48;100.00
26192;BME280;13935;55.672;37.764;2023-02-17T19:57:59;100443.03;;;-5.57;100.00
26192;BME280;13935;55.672;37.764;2023-02-17T19:59:08;100442.47;;;-5.54;100.00
26192;BME280;13935;55.672;37.764;2023-02-17T20:00:16;100440.88;;;-5.50;100.00
26192;BME280;13935;55.672;37.764;2023-02-17T20:01:30;100430.63;;;-5.58;100.00
26192;BME280;13935;55.672;37.764;2023-02-17T20:02:34;100436.28;;;-5.54;100.00
26192;BME280;13935;55.672;37.764;2023-02-17T20:03:39;100436.03;;;-5.48;100.00
26192;BME280;13935;55.672;37.764;2023-02-17T20:04:44;100432.81;;;-5.50;100.00
26192;BME280;13935;55.672;37.764;2023-02-17T20:05:47;100439.78;;;-5.49;100.00
26192;BME280;13935;55.672;37.764;2023-02-17T20:06:50;100430.63;;;-5.58;100.00
26192;BME280;13935;55.672;37.764;2023-02-17T20:07:54;100431.16;;;-5.70;100.00
26192;BME280;13935;55.672;37.764;2023-02-17T20:09:02;100429.56;;;-5.62;100.00
26192;BME280;13935;55.672;37.764;2023-02-17T20:10:09;100430.38;;;-5.61;100.00
26192;BME280;13935;55.672;37.764;2023-02-17T20:11:13;100421.72;;;-5.63;100.00
26192;BME280;13935;55.672;37.764;2023-02-17T20:12:19;100424.47;;;-5.58;100.00
26192;BME280;13935;55.672;37.764;2023-02-17T20:13:22;100430.38;;;-5.61;100.00
26192;BME280;13935;55.672;37.764;2023-02-17T20:14:27;100426.88;;;-5.52;100.00
26192;BME280;13935;55.672;37.764;2023-02-17T20:15:29;100427.94;;;-5.58;100.00
26192;BME280;13935;55.672;37.764;2023-02-17T20:16:32;100429.00;;;-5.59;100.00
26192;BME280;13935;55.672;37.764;2023-02-17T20:17:40;100428.50;;;-5.56;100.00
26192;BME280;13935;55.672;37.764;2023-02-17T20:18:45;100422.56;;;-5.63;100.00
26192;BME280;13935;55.672;37.764;2023-02-17T20:19:51;100419.03;;;-5.63;100.00
26192;BME280;13935;55.672;37.764;2023-02-17T20:20:54;100418.25;;;-5.68;100.00
26192;BME280;13935;55.672;37.764;2023-02-17T20:21:59;100421.47;;;-5.67;100.00
26192;BME280;13935;55.672;37.764;2023-02-17T20:23:04;100422.56;;;-5.63;100.00
26192;BME280;13935;55.672;37.764;2023-02-17T20:24:08;100419.03;;;-5.68;100.00
26192;BME280;13935;55.672;37.764;2023-02-17T20:25:10;100424.44;;;-5.68;100.00
26192;BME280;13935;55.672;37.764;2023-02-17T20:26:19;100427.41;;;-5.65;100.00
26192;BME280;13935;55.672;37.764;2023-02-17T20:27:22;100426.56;;;-5.70;100.00
26192;BME280;13935;55.672;37.764;2023-02-17T20:28:25;100422.56;;;-5.63;100.00
26192;BME280;13935;55.672;37.764;2023-02-17T20:29:29;100423.09;;;-5.66;100.00
26192;BME280;13935;55.672;37.764;2023-02-17T20:30:31;100428.19;;;-5.69;100.00
26192;BME280;13935;55.672;37.764;2023-02-17T20:31:34;100431.69;;;-5.73;100.00
26192;BME280;13935;55.672;37.764;2023-02-17T20:32:37;100428.75;;;-5.62;100.00
26192;BME280;13935;55.672;37.764;2023-02-17T20:33:40;100428.47;;;-5.66;100.00
26192;BME280;13935;55.672;37.764;2023-02-17T20:34:42;100422.81;;;-5.69;100.00
26192;BME280;13935;55.672;37.764;2023-02-17T20:35:46;100420.66;;;-5.72;100.00
26192;BME280;13935;55.672;37.764;2023-02-17T20:36:48;100419.03;;;-5.68;100.00
26192;BME280;13935;55.672;37.764;2023-02-17T20:37:50;100423.63;;;-5.68;100.00
26192;BME280;13935;55.672;37.764;2023-02-17T20:38:52;100416.91;;;-5.66;100.00
26192;BME280;13935;55.672;37.764;2023-02-17T20:39:54;100414.47;;;-5.67;100.00
26192;BME280;13935;55.672;37.764;2023-02-17T20:40:58;100410.16;;;-5.68;100.00
26192;BME280;13935;55.672;37.764;2023-02-17T20:42:01;100414.47;;;-5.67;100.00
26192;BME280;13935;55.672;37.764;2023-02-17T20:43:03;100412.88;;;-5.68;100.00
26192;BME280;13935;55.672;37.764;2023-02-17T20:44:09;100405.56;;;-5.73;100.00
26192;BME280;13935;55.672;37.764;2023-02-17T20:45:12;100410.13;;;-5.73;100.00
26192;BME280;13935;55.672;37.764;2023-02-17T20:46:25;100414.72;;;-5.74;100.00
26192;BME280;13935;55.672;37.764;2023-02-17T20:47:27;100413.94;;;-5.74;100.00
26192;BME280;13935;55.672;37.764;2023-02-17T20:48:30;100409.38;;;-5.79;100.00
26192;BME280;13935;55.672;37.764;2023-02-17T20:49:32;100402.34;;;-5.70;100.00
26192;BME280;13935;55.672;37.764;2023-02-17T20:50:34;100404.78;;;-5.78;100.00
26192;BME280;13935;55.672;37.764;2023-02-17T20:51:37;100411.50;;;-5.76;100.00
26192;BME280;13935;55.672;37.764;2023-02-17T20:52:39;100402.91;;;-5.78;100.00
26192;BME280;13935;55.672;37.764;2023-02-17T20:53:41;100396.72;;;-5.78;100.00
26192;BME280;13935;55.672;37.764;2023-02-17T20:54:43;100400.75;;;-5.71;100.00
26192;BME280;13935;55.672;37.764;2023-02-17T20:55:46;100396.44;;;-5.72;100.00
26192;BME280;13935;55.672;37.764;2023-02-17T20:56:49;100388.59;;;-5.73;100.00
26192;BME280;13935;55.672;37.764;2023-02-17T20:57:52;100392.41;;;-5.84;100.00
26192;BME280;13935;55.672;37.764;2023-02-17T20:58:54;100388.06;;;-5.75;100.00
26192;BME280;13935;55.672;37.764;2023-02-17T20:59:57;100388.59;;;-5.73;100.00
26192;BME280;13935;55.672;37.764;2023-02-17T21:00:59;100386.50;;;-5.86;100.00
26192;BME280;13935;55.672;37.764;2023-02-17T21:02:01;100381.91;;;-5.86;100.00
26192;BME280;13935;55.672;37.764;2023-02-17T21:03:03;100385.94;;;-5.88;100.00
26192;BME280;13935;55.672;37.764;2023-02-17T21:04:06;100384.88;;;-5.92;100.00
26192;BME280;13935;55.672;37.764;2023-02-17T21:05:09;100381.06;;;-5.96;100.00